sensor_id;sensor_type;location;lat;lon;timestamp;pressure;altitude;pressure_sealevel;temperature;humidity
64683;BME280;51107;47.652;19.016;2023-04-25T00:02:04;98807.31;;;11.83;86.13
64683;BME280;51107;47.652;19.016;2023-04-25T00:04:33;98803.34;;;11.87;86.20
64683;BME280;51107;47.652;19.016;2023-04-25T00:07:02;98816.41;;;11.72;85.40
64683;BME280;51107;47.652;19.016;2023-04-25T00:09:31;98815.50;;;11.65;85.72
64683;BME280;51107;47.652;19.016;2023-04-25T00:12:00;98811.28;;;11.64;84.98
64683;BME280;51107;47.652;19.016;2023-04-25T00:14:29;98814.63;;;11.72;84.73
64683;BME280;51107;47.652;19.016;2023-04-25T00:16:58;98811.63;;;11.76;83.37
64683;BME280;51107;47.652;19.016;2023-04-25T00:19:27;98803.19;;;11.73;83.86
64683;BME280;51107;47.652;19.016;2023-04-25T00:21:56;98807.50;;;11.66;83.44
64683;BME280;51107;47.652;19.016;2023-04-25T00:24:24;98792.81;;;11.80;82.07
64683;BME280;51107;47.652;19.016;2023-04-25T00:26:53;98802.56;;;11.71;82.49
64683;BME280;51107;47.652;19.016;2023-04-25T00:29:21;98801.31;;;11.52;83.25
64683;BME280;51107;47.652;19.016;2023-04-25T00:31:49;98796.16;;;11.74;82.41
64683;BME280;51107;47.652;19.016;2023-04-25T00:34:18;98791.50;;;11.54;82.76
64683;BME280;51107;47.652;19.016;2023-04-25T00:36:46;98788.91;;;11.69;79.95
64683;BME280;51107;47.652;19.016;2023-04-25T00:39:14;98790.41;;;11.64;81.62
64683;BME280;51107;47.652;19.016;2023-04-25T00:41:44;98784.00;;;11.81;80.25
64683;BME280;51107;47.652;19.016;2023-04-25T00:44:14;98794.97;;;11.92;79.14
64683;BME280;51107;47.652;19.016;2023-04-25T00:46:47;98778.31;;;11.93;78.43
64683;BME280;51107;47.652;19.016;2023-04-25T00:49:16;98781.22;;;11.68;79.59
64683;BME280;51107;47.652;19.016;2023-04-25T00:51:45;98775.03;;;11.69;79.94
64683;BME280;51107;47.652;19.016;2023-04-25T00:54:14;98776.09;;;11.60;81.14
64683;BME280;51107;47.652;19.016;2023-04-25T00:56:42;98767.41;;;11.52;82.91
64683;BME280;51107;47.652;19.016;2023-04-25T00:59:11;98770.75;;;11.61;82.50
64683;BME280;51107;47.652;19.016;2023-04-25T01:01:41;98761.03;;;11.40;84.64
64683;BME280;51107;47.652;19.016;2023-04-25T01:04:09;98759.31;;;11.47;85.21
64683;BME280;51107;47.652;19.016;2023-04-25T01:06:38;98769.72;;;11.47;84.93
64683;BME280;51107;47.652;19.016;2023-04-25T01:09:07;98778.38;;;11.48;85.30
64683;BME280;51107;47.652;19.016;2023-04-25T01:11:36;98770.47;;;11.56;83.85
64683;BME280;51107;47.652;19.016;2023-04-25T01:14:05;98770.56;;;11.63;83.03
64683;BME280;51107;47.652;19.016;2023-04-25T01:16:33;98761.09;;;11.47;83.52
64683;BME280;51107;47.652;19.016;2023-04-25T01:19:06;98761.09;;;11.47;83.73
64683;BME280;51107;47.652;19.016;2023-04-25T01:21:39;98763.91;;;11.45;84.09
64683;BME280;51107;47.652;19.016;2023-04-25T01:24:08;98763.72;;;11.32;85.00
64683;BME280;51107;47.652;19.016;2023-04-25T01:26:37;98764.78;;;11.37;84.76
64683;BME280;51107;47.652;19.016;2023-04-25T01:29:07;98766.69;;;11.29;84.73
64683;BME280;51107;47.652;19.016;2023-04-25T01:31:36;98767.22;;;11.39;84.04
64683;BME280;51107;47.652;19.016;2023-04-25T01:34:05;98774.25;;;11.53;83.15
64683;BME280;51107;47.652;19.016;2023-04-25T01:36:35;98762.03;;;11.24;84.62
64683;BME280;51107;47.652;19.016;2023-04-25T01:39:06;98745.75;;;11.37;84.94
64683;BME280;51107;47.652;19.016;2023-04-25T01:41:35;98754.03;;;11.41;84.49
64683;BME280;51107;47.652;19.016;2023-04-25T01:44:03;98747.59;;;11.58;81.78
64683;BME280;51107;47.652;19.016;2023-04-25T01:46:33;98753.09;;;11.33;83.46
64683;BME280;51107;47.652;19.016;2023-04-25T01:49:03;98746.62;;;11.44;82.73
64683;BME280;51107;47.652;19.016;2023-04-25T01:51:32;98728.66;;;11.49;81.80
64683;BME280;51107;47.652;19.016;2023-04-25T01:54:01;98738.72;;;11.52;81.69
64683;BME280;51107;47.652;19.016;2023-04-25T01:56:31;98718.28;;;11.56;80.69
64683;BME280;51107;47.652;19.016;2023-04-25T01:59:00;98719.75;;;11.59;79.58
64683;BME280;51107;47.652;19.016;2023-04-25T02:01:29;98700.06;;;11.41;80.46
64683;BME280;51107;47.652;19.016;2023-04-25T02:03:58;98711.28;;;11.56;78.32
64683;BME280;51107;47.652;19.016;2023-04-25T02:06:28;98720.13;;;11.41;79.35
64683;BME280;51107;47.652;19.016;2023-04-25T02:08:57;98725.16;;;11.42;78.82
64683;BME280;51107;47.652;19.016;2023-04-25T02:11:26;98718.69;;;11.38;79.24
64683;BME280;51107;47.652;19.016;2023-04-25T02:13:54;98717.16;;;11.44;78.69
64683;BME280;51107;47.652;19.016;2023-04-25T02:16:23;98718.88;;;11.36;79.71
64683;BME280;51107;47.652;19.016;2023-04-25T02:18:52;98711.31;;;11.27;80.31
64683;BME280;51107;47.652;19.016;2023-04-25T02:21:20;98722.38;;;11.29;80.68
64683;BME280;51107;47.652;19.016;2023-04-25T02:23:48;98712.03;;;11.20;80.68
64683;BME280;51107;47.652;19.016;2023-04-25T02:26:20;98716.19;;;11.30;79.98
64683;BME280;51107;47.652;19.016;2023-04-25T02:28:51;98707.19;;;11.17;80.25
64683;BME280;51107;47.652;19.016;2023-04-25T02:31:20;98722.84;;;11.32;78.19
64683;BME280;51107;47.652;19.016;2023-04-25T02:33:48;98710.03;;;11.37;75.97
64683;BME280;51107;47.652;19.016;2023-04-25T02:36:20;98714.19;;;11.32;75.44
64683;BME280;51107;47.652;19.016;2023-04-25T02:38:49;98688.66;;;11.27;76.02
64683;BME280;51107;47.652;19.016;2023-04-25T02:41:18;98704.69;;;11.24;74.69
64683;BME280;51107;47.652;19.016;2023-04-25T02:43:46;98694.59;;;11.21;75.25
64683;BME280;51107;47.652;19.016;2023-04-25T02:46:15;98707.00;;;11.34;73.85
64683;BME280;51107;47.652;19.016;2023-04-25T02:48:58;98693.97;;;11.34;74.20
64683;BME280;51107;47.652;19.016;2023-04-25T02:51:29;98712.31;;;11.26;75.34
64683;BME280;51107;47.652;19.016;2023-04-25T02:53:58;98708.69;;;11.27;75.17
64683;BME280;51107;47.652;19.016;2023-04-25T02:56:27;98704.41;;;11.34;74.45
64683;BME280;51107;47.652;19.016;2023-04-25T02:58:58;98709.72;;;11.26;75.75
64683;BME280;51107;47.652;19.016;2023-04-25T03:01:27;98707.44;;;11.22;76.44
64683;BME280;51107;47.652;19.016;2023-04-25T03:03:56;98706.09;;;11.27;76.78
64683;BME280;51107;47.652;19.016;2023-04-25T03:06:24;98706.81;;;11.05;78.60
64683;BME280;51107;47.652;19.016;2023-04-25T03:08:53;98715.28;;;11.08;78.58
64683;BME280;51107;47.652;19.016;2023-04-25T03:11:21;98716.88;;;11.24;77.10
64683;BME280;51107;47.652;19.016;2023-04-25T03:13:50;98697.56;;;11.03;78.62
64683;BME280;51107;47.652;19.016;2023-04-25T03:16:20;98722.03;;;11.02;79.11
64683;BME280;51107;47.652;19.016;2023-04-25T03:18:50;98715.28;;;11.08;78.53
64683;BME280;51107;47.652;19.016;2023-04-25T03:21:19;98719.34;;;11.10;78.52
64683;BME280;51107;47.652;19.016;2023-04-25T03:23:47;98728.50;;;11.06;77.78
64683;BME280;51107;47.652;19.016;2023-04-25T03:26:16;98733.34;;;11.09;76.88
64683;BME280;51107;47.652;19.016;2023-04-25T03:28:44;98723.19;;;10.99;78.35
64683;BME280;51107;47.652;19.016;2023-04-25T03:31:13;98721.37;;;11.00;76.86
64683;BME280;51107;47.652;19.016;2023-04-25T03:33:41;98710.88;;;10.93;76.53
64683;BME280;51107;47.652;19.016;2023-04-25T03:36:10;98740.16;;;10.95;77.75
64683;BME280;51107;47.652;19.016;2023-04-25T03:38:38;98727.13;;;10.80;78.03
64683;BME280;51107;47.652;19.016;2023-04-25T03:41:07;98728.56;;;10.83;78.18
64683;BME280;51107;47.652;19.016;2023-04-25T03:43:36;98731.62;;;11.01;75.63
64683;BME280;51107;47.652;19.016;2023-04-25T03:46:05;98760.00;;;10.96;77.47
64683;BME280;51107;47.652;19.016;2023-04-25T03:48:33;98734.56;;;10.83;76.53
64683;BME280;51107;47.652;19.016;2023-04-25T03:51:02;98742.44;;;10.60;78.10
64683;BME280;51107;47.652;19.016;2023-04-25T03:53:31;98743.91;;;10.78;77.51
64683;BME280;51107;47.652;19.016;2023-04-25T03:56:01;98725.56;;;10.71;77.45
64683;BME280;51107;47.652;19.016;2023-04-25T03:58:32;98748.75;;;10.81;77.39
64683;BME280;51107;47.652;19.016;2023-04-25T04:01:00;98738.88;;;10.76;76.02
64683;BME280;51107;47.652;19.016;2023-04-25T04:03:32;98758.75;;;10.77;76.82
64683;BME280;51107;47.652;19.016;2023-04-25T04:06:02;98736.56;;;10.81;75.84
64683;BME280;51107;47.652;19.016;2023-04-25T04:08:33;98752.47;;;10.63;78.81
64683;BME280;51107;47.652;19.016;2023-04-25T04:11:02;98754.50;;;10.76;78.16
64683;BME280;51107;47.652;19.016;2023-04-25T04:13:30;98739.69;;;10.39;81.14
64683;BME280;51107;47.652;19.016;2023-04-25T04:15:59;98768.22;;;10.55;82.15
64683;BME280;51107;47.652;19.016;2023-04-25T04:18:27;98736.44;;;10.36;83.24
64683;BME280;51107;47.652;19.016;2023-04-25T04:20:56;98761.84;;;10.34;83.21
64683;BME280;51107;47.652;19.016;2023-04-25T04:23:28;98745.38;;;10.34;82.22
64683;BME280;51107;47.652;19.016;2023-04-25T04:25:56;98760.16;;;10.42;83.52
64683;BME280;51107;47.652;19.016;2023-04-25T04:28:25;98768.34;;;10.30;84.68
64683;BME280;51107;47.652;19.016;2023-04-25T04:30:55;98746.06;;;10.36;83.18
64683;BME280;51107;47.652;19.016;2023-04-25T04:33:24;98758.56;;;10.32;84.97
64683;BME280;51107;47.652;19.016;2023-04-25T04:35:54;98762.19;;;10.23;86.02
64683;BME280;51107;47.652;19.016;2023-04-25T04:38:24;98762.72;;;10.18;86.59
64683;BME280;51107;47.652;19.016;2023-04-25T04:40:53;98761.09;;;10.17;86.90
64683;BME280;51107;47.652;19.016;2023-04-25T04:43:22;98755.91;;;10.17;86.87
64683;BME280;51107;47.652;19.016;2023-04-25T04:45:51;98764.72;;;10.08;88.41
64683;BME280;51107;47.652;19.016;2023-04-25T04:48:20;98752.69;;;10.15;85.85
64683;BME280;51107;47.652;19.016;2023-04-25T04:50:53;98754.12;;;10.18;87.40
64683;BME280;51107;47.652;19.016;2023-04-25T04:53:22;98760.44;;;10.24;88.86
64683;BME280;51107;47.652;19.016;2023-04-25T04:55:51;98744.22;;;10.13;86.24
64683;BME280;51107;47.652;19.016;2023-04-25T04:58:21;98746.38;;;10.10;88.95
64683;BME280;51107;47.652;19.016;2023-04-25T05:00:49;98757.19;;;10.22;87.84
64683;BME280;51107;47.652;19.016;2023-04-25T05:03:19;98762.25;;;10.15;88.55
64683;BME280;51107;47.652;19.016;2023-04-25T05:05:49;98754.12;;;10.18;88.72
64683;BME280;51107;47.652;19.016;2023-04-25T05:08:17;98765.56;;;10.09;89.53
64683;BME280;51107;47.652;19.016;2023-04-25T05:10:46;98767.59;;;10.22;87.08
64683;BME280;51107;47.652;19.016;2023-04-25T05:13:15;98769.13;;;10.08;88.04
64683;BME280;51107;47.652;19.016;2023-04-25T05:15:43;98766.22;;;10.02;89.12
64683;BME280;51107;47.652;19.016;2023-04-25T05:18:13;98762.97;;;10.09;86.73
64683;BME280;51107;47.652;19.016;2023-04-25T05:20:42;98764.06;;;9.83;91.20
64683;BME280;51107;47.652;19.016;2023-04-25T05:23:11;98769.66;;;10.03;87.97
64683;BME280;51107;47.652;19.016;2023-04-25T05:25:40;98758.81;;;9.91;88.36
64683;BME280;51107;47.652;19.016;2023-04-25T05:28:10;98757.19;;;9.90;86.37
64683;BME280;51107;47.652;19.016;2023-04-25T05:30:39;98768.28;;;9.84;88.55
64683;BME280;51107;47.652;19.016;2023-04-25T05:33:07;98743.00;;;9.69;89.07
64683;BME280;51107;47.652;19.016;2023-04-25T05:35:36;98760.97;;;9.88;86.10
64683;BME280;51107;47.652;19.016;2023-04-25T05:38:05;98754.53;;;9.75;87.72
64683;BME280;51107;47.652;19.016;2023-04-25T05:40:34;98759.69;;;9.83;87.37
64683;BME280;51107;47.652;19.016;2023-04-25T05:43:04;98747.22;;;9.71;86.16
64683;BME280;51107;47.652;19.016;2023-04-25T05:45:33;98760.28;;;9.54;89.39
64683;BME280;51107;47.652;19.016;2023-04-25T05:48:02;98740.69;;;9.75;86.53
64683;BME280;51107;47.652;19.016;2023-04-25T05:50:32;98751.97;;;9.67;88.76
64683;BME280;51107;47.652;19.016;2023-04-25T05:53:00;98755.22;;;9.61;87.57
64683;BME280;51107;47.652;19.016;2023-04-25T05:55:29;98746.81;;;9.59;88.89
64683;BME280;51107;47.652;19.016;2023-04-25T05:57:58;98746.88;;;9.42;91.31
64683;BME280;51107;47.652;19.016;2023-04-25T06:00:26;98746.59;;;9.29;92.88
64683;BME280;51107;47.652;19.016;2023-04-25T06:02:56;98772.56;;;9.29;94.32
64683;BME280;51107;47.652;19.016;2023-04-25T06:05:24;98763.78;;;9.38;91.77
64683;BME280;51107;47.652;19.016;2023-04-25T06:07:53;98777.28;;;9.25;95.85
64683;BME280;51107;47.652;19.016;2023-04-25T06:10:22;98763.16;;;9.28;95.05
64683;BME280;51107;47.652;19.016;2023-04-25T06:12:50;98771.31;;;9.08;98.35
64683;BME280;51107;47.652;19.016;2023-04-25T06:15:19;98773.25;;;9.06;99.64
64683;BME280;51107;47.652;19.016;2023-04-25T06:17:50;98779.13;;;9.08;99.13
64683;BME280;51107;47.652;19.016;2023-04-25T06:20:19;98785.44;;;9.14;100.00
64683;BME280;51107;47.652;19.016;2023-04-25T06:22:51;98783.81;;;8.96;100.00
64683;BME280;51107;47.652;19.016;2023-04-25T06:25:20;98791.78;;;8.95;100.00
64683;BME280;51107;47.652;19.016;2023-04-25T06:27:49;98799.91;;;9.00;100.00
64683;BME280;51107;47.652;19.016;2023-04-25T06:30:17;98793.09;;;8.99;100.00
64683;BME280;51107;47.652;19.016;2023-04-25T06:32:51;98794.88;;;8.98;100.00
64683;BME280;51107;47.652;19.016;2023-04-25T06:35:20;98791.44;;;8.98;100.00
64683;BME280;51107;47.652;19.016;2023-04-25T06:37:48;98813.41;;;8.95;100.00
64683;BME280;51107;47.652;19.016;2023-04-25T06:40:19;98804.78;;;8.95;100.00
64683;BME280;51107;47.652;19.016;2023-04-25T06:42:49;98810.94;;;9.02;100.00
64683;BME280;51107;47.652;19.016;2023-04-25T06:45:19;98801.53;;;8.93;100.00
64683;BME280;51107;47.652;19.016;2023-04-25T06:47:47;98813.06;;;8.98;100.00
64683;BME280;51107;47.652;19.016;2023-04-25T06:50:16;98809.31;;;9.09;100.00
64683;BME280;51107;47.652;19.016;2023-04-25T06:52:45;98812.09;;;8.99;100.00
64683;BME280;51107;47.652;19.016;2023-04-25T06:55:13;98809.00;;;9.12;100.00
64683;BME280;51107;47.652;19.016;2023-04-25T06:57:43;98797.94;;;9.10;100.00
64683;BME280;51107;47.652;19.016;2023-04-25T07:00:13;98809.47;;;9.16;100.00
64683;BME280;51107;47.652;19.016;2023-04-25T07:02:41;98806.06;;;9.15;100.00
64683;BME280;51107;47.652;19.016;2023-04-25T07:05:12;98810.44;;;9.23;100.00
64683;BME280;51107;47.652;19.016;2023-04-25T07:07:41;98810.09;;;9.26;100.00
64683;BME280;51107;47.652;19.016;2023-04-25T07:10:10;98803.75;;;9.37;100.00
64683;BME280;51107;47.652;19.016;2023-04-25T07:12:39;98813.13;;;9.55;100.00
64683;BME280;51107;47.652;19.016;2023-04-25T07:15:08;98812.66;;;9.43;100.00
64683;BME280;51107;47.652;19.016;2023-04-25T07:17:38;98814.56;;;9.49;100.00
64683;BME280;51107;47.652;19.016;2023-04-25T07:20:07;98810.19;;;9.58;100.00
64683;BME280;51107;47.652;19.016;2023-04-25T07:22:37;98813.91;;;9.63;100.00
64683;BME280;51107;47.652;19.016;2023-04-25T07:25:06;98826.22;;;9.69;100.00
64683;BME280;51107;47.652;19.016;2023-04-25T07:27:35;98818.91;;;9.73;100.00
64683;BME280;51107;47.652;19.016;2023-04-25T07:30:04;98823.84;;;9.91;100.00
64683;BME280;51107;47.652;19.016;2023-04-25T07:32:33;98818.53;;;9.84;100.00
64683;BME280;51107;47.652;19.016;2023-04-25T07:35:02;98814.75;;;9.95;100.00
64683;BME280;51107;47.652;19.016;2023-04-25T07:37:31;98831.16;;;9.96;100.00
64683;BME280;51107;47.652;19.016;2023-04-25T07:40:00;98822.03;;;10.00;100.00
64683;BME280;51107;47.652;19.016;2023-04-25T07:42:30;98832.44;;;10.00;100.00
64683;BME280;51107;47.652;19.016;2023-04-25T07:44:58;98834.19;;;10.08;100.00
64683;BME280;51107;47.652;19.016;2023-04-25T07:47:26;98820.66;;;10.12;100.00
64683;BME280;51107;47.652;19.016;2023-04-25T07:49:55;98833.03;;;10.10;100.00
64683;BME280;51107;47.652;19.016;2023-04-25T07:52:25;98830.00;;;10.30;100.00
64683;BME280;51107;47.652;19.016;2023-04-25T07:54:54;98834.59;;;10.28;100.00
64683;BME280;51107;47.652;19.016;2023-04-25T07:57:24;98838.16;;;10.35;100.00
64683;BME280;51107;47.652;19.016;2023-04-25T07:59:53;98835.13;;;10.46;100.00
64683;BME280;51107;47.652;19.016;2023-04-25T08:02:22;98833.94;;;10.80;99.33
64683;BME280;51107;47.652;19.016;2023-04-25T08:04:51;98838.56;;;10.70;99.73
64683;BME280;51107;47.652;19.016;2023-04-25T08:07:20;98830.47;;;10.65;100.00
64683;BME280;51107;47.652;19.016;2023-04-25T08:09:48;98842.03;;;10.62;100.00
64683;BME280;51107;47.652;19.016;2023-04-25T08:12:17;98825.81;;;10.75;100.00
64683;BME280;51107;47.652;19.016;2023-04-25T08:14:48;98837.31;;;11.04;99.01
64683;BME280;51107;47.652;19.016;2023-04-25T08:17:16;98832.47;;;11.01;100.00
64683;BME280;51107;47.652;19.016;2023-04-25T08:19:46;98824.09;;;11.05;97.56
64683;BME280;51107;47.652;19.016;2023-04-25T08:22:15;98827.53;;;11.21;98.24
64683;BME280;51107;47.652;19.016;2023-04-25T08:24:44;98836.44;;;11.27;97.24
64683;BME280;51107;47.652;19.016;2023-04-25T08:27:13;98845.66;;;11.52;100.00
64683;BME280;51107;47.652;19.016;2023-04-25T08:29:42;98841.06;;;11.54;96.41
64683;BME280;51107;47.652;19.016;2023-04-25T08:32:10;98839.53;;;11.45;97.79
64683;BME280;51107;47.652;19.016;2023-04-25T08:34:40;98840.69;;;11.58;98.20
64683;BME280;51107;47.652;19.016;2023-04-25T08:37:10;98833.59;;;11.66;98.17
64683;BME280;51107;47.652;19.016;2023-04-25T08:39:40;98845.91;;;11.87;93.61
64683;BME280;51107;47.652;19.016;2023-04-25T08:42:12;98847.09;;;11.70;93.99
64683;BME280;51107;47.652;19.016;2023-04-25T08:44:40;98843.69;;;11.69;94.51
64683;BME280;51107;47.652;19.016;2023-04-25T08:47:09;98861.22;;;11.76;91.07
64683;BME280;51107;47.652;19.016;2023-04-25T08:49:39;98859.06;;;11.64;89.70
64683;BME280;51107;47.652;19.016;2023-04-25T08:52:13;98860.59;;;11.59;88.69
64683;BME280;51107;47.652;19.016;2023-04-25T08:54:43;98865.91;;;11.50;90.79
64683;BME280;51107;47.652;19.016;2023-04-25T08:57:17;98858.41;;;11.47;90.98
64683;BME280;51107;47.652;19.016;2023-04-25T08:59:48;98866.78;;;11.43;89.59
64683;BME280;51107;47.652;19.016;2023-04-25T09:02:17;98868.31;;;11.52;90.83
64683;BME280;51107;47.652;19.016;2023-04-25T09:04:49;98881.81;;;11.70;87.28
64683;BME280;51107;47.652;19.016;2023-04-25T09:07:17;98882.34;;;11.66;89.46
64683;BME280;51107;47.652;19.016;2023-04-25T09:09:47;98872.53;;;11.68;89.34
64683;BME280;51107;47.652;19.016;2023-04-25T09:12:19;98875.50;;;11.65;87.93
64683;BME280;51107;47.652;19.016;2023-04-25T09:15:09;98878.69;;;11.75;88.77
64683;BME280;51107;47.652;19.016;2023-04-25T09:17:41;98874.88;;;11.93;87.55
64683;BME280;51107;47.652;19.016;2023-04-25T09:20:13;98880.66;;;12.03;84.18
64683;BME280;51107;47.652;19.016;2023-04-25T09:22:45;98884.25;;;12.02;86.92
64683;BME280;51107;47.652;19.016;2023-04-25T09:25:14;98873.72;;;12.10;83.96
64683;BME280;51107;47.652;19.016;2023-04-25T09:27:51;98881.09;;;11.92;84.88
64683;BME280;51107;47.652;19.016;2023-04-25T09:30:32;98884.44;;;12.00;86.93
64683;BME280;51107;47.652;19.016;2023-04-25T09:33:11;98875.25;;;12.19;81.27
64683;BME280;51107;47.652;19.016;2023-04-25T09:35:42;98876.03;;;12.20;85.77
64683;BME280;51107;47.652;19.016;2023-04-25T09:38:14;98881.37;;;12.48;84.54
64683;BME280;51107;47.652;19.016;2023-04-25T09:40:51;98875.59;;;12.53;81.29
64683;BME280;51107;47.652;19.016;2023-04-25T09:43:24;98870.56;;;12.51;81.71
64683;BME280;51107;47.652;19.016;2023-04-25T09:45:54;98863.97;;;12.55;79.94
64683;BME280;51107;47.652;19.016;2023-04-25T09:48:28;98859.63;;;12.84;78.65
64683;BME280;51107;47.652;19.016;2023-04-25T09:51:09;98875.38;;;12.91;75.34
64683;BME280;51107;47.652;19.016;2023-04-25T09:53:40;98880.78;;;12.89;76.47
64683;BME280;51107;47.652;19.016;2023-04-25T09:56:10;98879.59;;;12.92;75.30
64683;BME280;51107;47.652;19.016;2023-04-25T09:58:40;98885.09;;;12.76;78.98
64683;BME280;51107;47.652;19.016;2023-04-25T10:01:10;98879.16;;;12.88;78.39
64683;BME280;51107;47.652;19.016;2023-04-25T10:03:40;98887.31;;;13.00;73.64
64683;BME280;51107;47.652;19.016;2023-04-25T10:06:19;98880.09;;;12.81;76.72
64683;BME280;51107;47.652;19.016;2023-04-25T10:08:51;98877.16;;;13.12;74.58
64683;BME280;51107;47.652;19.016;2023-04-25T10:11:22;98884.97;;;12.84;75.47
64683;BME280;51107;47.652;19.016;2023-04-25T10:13:53;98874.66;;;13.04;77.48
64683;BME280;51107;47.652;19.016;2023-04-25T10:16:21;98877.19;;;13.19;78.62
64683;BME280;51107;47.652;19.016;2023-04-25T10:18:50;98882.00;;;13.15;74.88
64683;BME280;51107;47.652;19.016;2023-04-25T10:21:20;98882.25;;;12.99;72.25
64683;BME280;51107;47.652;19.016;2023-04-25T10:23:49;98878.66;;;13.00;73.32
64683;BME280;51107;47.652;19.016;2023-04-25T10:26:18;98879.50;;;13.07;75.08
64683;BME280;51107;47.652;19.016;2023-04-25T10:28:57;98871.91;;;13.12;70.11
64683;BME280;51107;47.652;19.016;2023-04-25T10:31:26;98874.53;;;12.90;76.40
64683;BME280;51107;47.652;19.016;2023-04-25T10:33:55;98884.00;;;12.91;68.73
64683;BME280;51107;47.652;19.016;2023-04-25T10:36:24;98869.03;;;12.79;72.34
64683;BME280;51107;47.652;19.016;2023-04-25T10:38:53;98875.38;;;12.69;72.24
64683;BME280;51107;47.652;19.016;2023-04-25T10:41:23;98878.22;;;12.74;72.61
64683;BME280;51107;47.652;19.016;2023-04-25T10:43:59;98881.41;;;12.91;69.75
64683;BME280;51107;47.652;19.016;2023-04-25T10:46:29;98867.16;;;12.51;70.00
64683;BME280;51107;47.652;19.016;2023-04-25T10:49:02;98874.44;;;12.77;74.09
64683;BME280;51107;47.652;19.016;2023-04-25T10:51:32;98884.06;;;12.98;73.23
64683;BME280;51107;47.652;19.016;2023-04-25T10:54:22;98876.16;;;13.13;71.89
64683;BME280;51107;47.652;19.016;2023-04-25T10:56:53;98886.59;;;13.35;67.36
64683;BME280;51107;47.652;19.016;2023-04-25T10:59:24;98873.25;;;13.51;67.53
64683;BME280;51107;47.652;19.016;2023-04-25T11:01:53;98882.13;;;13.57;71.01
64683;BME280;51107;47.652;19.016;2023-04-25T11:04:31;98878.31;;;13.95;68.61
64683;BME280;51107;47.652;19.016;2023-04-25T11:07:05;98886.69;;;14.25;66.79
64683;BME280;51107;47.652;19.016;2023-04-25T11:09:38;98883.31;;;14.44;66.60
64683;BME280;51107;47.652;19.016;2023-04-25T11:12:09;98892.22;;;14.57;64.39
64683;BME280;51107;47.652;19.016;2023-04-25T11:14:40;98894.16;;;14.28;63.81
64683;BME280;51107;47.652;19.016;2023-04-25T11:17:09;98888.87;;;14.21;65.88
64683;BME280;51107;47.652;19.016;2023-04-25T11:19:39;98884.06;;;14.25;62.51
64683;BME280;51107;47.652;19.016;2023-04-25T11:22:10;98889.28;;;14.18;63.81
64683;BME280;51107;47.652;19.016;2023-04-25T11:24:38;98902.00;;;14.28;61.50
64683;BME280;51107;47.652;19.016;2023-04-25T11:27:07;98898.84;;;13.98;64.11
64683;BME280;51107;47.652;19.016;2023-04-25T11:29:35;98894.84;;;14.02;62.18
64683;BME280;51107;47.652;19.016;2023-04-25T11:32:04;98903.19;;;14.25;62.82
64683;BME280;51107;47.652;19.016;2023-04-25T11:34:33;98892.91;;;14.24;63.92
64683;BME280;51107;47.652;19.016;2023-04-25T11:37:02;98897.72;;;14.69;62.67
64683;BME280;51107;47.652;19.016;2023-04-25T11:39:31;98894.94;;;14.84;59.84
64683;BME280;51107;47.652;19.016;2023-04-25T11:42:00;98901.19;;;14.89;61.33
64683;BME280;51107;47.652;19.016;2023-04-25T11:44:39;98904.19;;;14.73;57.93
64683;BME280;51107;47.652;19.016;2023-04-25T11:47:09;98906.78;;;14.66;59.02
64683;BME280;51107;47.652;19.016;2023-04-25T11:49:37;98912.84;;;14.67;58.42
64683;BME280;51107;47.652;19.016;2023-04-25T11:52:06;98922.09;;;14.63;57.26
64683;BME280;51107;47.652;19.016;2023-04-25T11:54:36;98914.56;;;14.39;59.86
64683;BME280;51107;47.652;19.016;2023-04-25T11:57:05;98922.19;;;14.34;59.73
64683;BME280;51107;47.652;19.016;2023-04-25T11:59:36;98922.12;;;14.76;57.53
64683;BME280;51107;47.652;19.016;2023-04-25T12:02:04;98927.50;;;14.54;59.68
64683;BME280;51107;47.652;19.016;2023-04-25T12:04:35;98919.47;;;14.63;55.85
64683;BME280;51107;47.652;19.016;2023-04-25T12:07:04;98918.00;;;14.47;54.71
64683;BME280;51107;47.652;19.016;2023-04-25T12:09:33;98931.63;;;14.22;54.54
64683;BME280;51107;47.652;19.016;2023-04-25T12:12:02;98924.34;;;14.24;56.88
64683;BME280;51107;47.652;19.016;2023-04-25T12:14:34;98918.03;;;14.53;56.73
64683;BME280;51107;47.652;19.016;2023-04-25T12:17:04;98925.63;;;14.35;58.41
64683;BME280;51107;47.652;19.016;2023-04-25T12:19:35;98917.72;;;14.28;59.98
64683;BME280;51107;47.652;19.016;2023-04-25T12:22:19;98922.59;;;14.38;62.24
64683;BME280;51107;47.652;19.016;2023-04-25T12:24:48;98927.44;;;14.34;61.57
64683;BME280;51107;47.652;19.016;2023-04-25T12:27:17;98929.53;;;14.59;60.48
64683;BME280;51107;47.652;19.016;2023-04-25T12:29:52;98926.47;;;14.49;59.97
64683;BME280;51107;47.652;19.016;2023-04-25T12:32:21;98928.59;;;14.73;59.65
64683;BME280;51107;47.652;19.016;2023-04-25T12:34:49;98920.53;;;14.75;55.84
64683;BME280;51107;47.652;19.016;2023-04-25T12:37:18;98907.88;;;14.99;53.90
64683;BME280;51107;47.652;19.016;2023-04-25T12:39:47;98903.63;;;14.98;55.69
64683;BME280;51107;47.652;19.016;2023-04-25T12:42:15;98910.47;;;14.92;51.83
64683;BME280;51107;47.652;19.016;2023-04-25T12:44:43;98909.63;;;14.71;53.39
64683;BME280;51107;47.652;19.016;2023-04-25T12:47:12;98903.13;;;14.60;55.98
64683;BME280;51107;47.652;19.016;2023-04-25T12:49:41;98897.94;;;14.81;55.67
64683;BME280;51107;47.652;19.016;2023-04-25T12:52:09;98900.78;;;14.92;55.04
64683;BME280;51107;47.652;19.016;2023-04-25T12:54:39;98895.37;;;15.21;56.23
64683;BME280;51107;47.652;19.016;2023-04-25T12:57:07;98897.38;;;15.25;50.26
64683;BME280;51107;47.652;19.016;2023-04-25T12:59:35;98900.00;;;15.19;50.68
64683;BME280;51107;47.652;19.016;2023-04-25T13:02:04;98895.34;;;15.07;50.44
64683;BME280;51107;47.652;19.016;2023-04-25T13:04:32;98892.31;;;15.10;51.12